sensor_id;sensor_type;location;lat;lon;timestamp;pressure;altitude;pressure_sealevel;temperature;humidity
68329;BME280;55182;56.864;60.554;2023-02-12T00:01:01;77722.59;;;-143.60;79.97
68329;BME280;55182;56.864;60.554;2023-02-12T00:03:27;77724.59;;;-143.60;79.76
68329;BME280;55182;56.864;60.554;2023-02-12T00:05:52;77730.63;;;-143.60;79.57
68329;BME280;55182;56.864;60.554;2023-02-12T00:08:17;77734.66;;;-143.60;79.58
68329;BME280;55182;56.864;60.554;2023-02-12T00:10:43;77744.69;;;-143.60;79.71
68329;BME280;55182;56.864;60.554;2023-02-12T00:13:09;77754.75;;;-143.60;79.94
68329;BME280;55182;56.864;60.554;2023-02-12T00:15:39;77762.78;;;-143.60;79.83
68329;BME280;55182;56.864;60.554;2023-02-12T00:18:05;77770.84;;;-143.60;80.11
68329;BME280;55182;56.864;60.554;2023-02-12T00:20:31;77778.88;;;-143.60;80.02
68329;BME280;55182;56.864;60.554;2023-02-12T00:22:56;77794.97;;;-143.60;80.15
68329;BME280;55182;56.864;60.554;2023-02-12T00:25:22;77811.03;;;-143.60;80.36
68329;BME280;55182;56.864;60.554;2023-02-12T00:27:47;77827.13;;;-143.60;80.41
68329;BME280;55182;56.864;60.554;2023-02-12T00:30:12;77831.16;;;-143.60;80.77
68329;BME280;55182;56.864;60.554;2023-02-12T00:32:38;77835.16;;;-143.60;81.07
68329;BME280;55182;56.864;60.554;2023-02-12T00:35:03;77837.19;;;-143.60;81.24
68329;BME280;55182;56.864;60.554;2023-02-12T00:37:29;77843.22;;;-143.60;81.36
68329;BME280;55182;56.864;60.554;2023-02-12T00:39:54;77857.28;;;-143.60;81.68
68329;BME280;55182;56.864;60.554;2023-02-12T00:42:20;77859.28;;;-143.60;81.87
68329;BME280;55182;56.864;60.554;2023-02-12T00:44:46;77865.31;;;-143.60;82.09
68329;BME280;55182;56.864;60.554;2023-02-12T00:47:11;77871.34;;;-143.60;82.35
68329;BME280;55182;56.864;60.554;2023-02-12T00:49:37;77879.41;;;-143.60;82.42
68329;BME280;55182;56.864;60.554;2023-02-12T00:52:03;77885.44;;;-143.60;82.71
68329;BME280;55182;56.864;60.554;2023-02-12T00:54:29;77883.41;;;-143.60;82.66
68329;BME280;55182;56.864;60.554;2023-02-12T00:56:55;77889.44;;;-143.60;82.76
68329;BME280;55182;56.864;60.554;2023-02-12T00:59:21;77899.50;;;-143.60;82.89
68329;BME280;55182;56.864;60.554;2023-02-12T01:01:46;77899.50;;;-143.60;83.02
68329;BME280;55182;56.864;60.554;2023-02-12T01:04:12;77893.47;;;-143.60;83.20
68329;BME280;55182;56.864;60.554;2023-02-12T01:06:37;77887.44;;;-143.60;83.15
68329;BME280;55182;56.864;60.554;2023-02-12T01:09:03;77885.44;;;-143.60;83.13
68329;BME280;55182;56.864;60.554;2023-02-12T01:11:28;77887.44;;;-143.60;83.37
68329;BME280;55182;56.864;60.554;2023-02-12T01:13:54;77893.47;;;-143.60;83.38
68329;BME280;55182;56.864;60.554;2023-02-12T01:16:20;77903.53;;;-143.60;83.35
68329;BME280;55182;56.864;60.554;2023-02-12T01:18:48;77907.53;;;-143.60;83.35
68329;BME280;55182;56.864;60.554;2023-02-12T01:21:18;77915.59;;;-143.60;83.51
68329;BME280;55182;56.864;60.554;2023-02-12T01:23:44;77913.56;;;-143.60;83.16
68329;BME280;55182;56.864;60.554;2023-02-12T01:26:10;77911.56;;;-143.60;83.33
68329;BME280;55182;56.864;60.554;2023-02-12T01:28:36;77919.59;;;-143.60;83.41
68329;BME280;55182;56.864;60.554;2023-02-12T01:31:06;77925.63;;;-143.60;83.43
68329;BME280;55182;56.864;60.554;2023-02-12T01:33:31;77931.66;;;-143.60;83.22
68329;BME280;55182;56.864;60.554;2023-02-12T01:35:57;77945.75;;;-143.60;83.11
68329;BME280;55182;56.864;60.554;2023-02-12T01:38:22;77959.81;;;-143.60;83.25
68329;BME280;55182;56.864;60.554;2023-02-12T01:40:48;77979.91;;;-143.60;83.19
68329;BME280;55182;56.864;60.554;2023-02-12T01:43:13;77981.94;;;-143.60;83.58
68329;BME280;55182;56.864;60.554;2023-02-12T01:48:04;77963.84;;;-143.60;83.99
68329;BME280;55182;56.864;60.554;2023-02-12T01:50:30;77965.84;;;-143.60;83.90
68329;BME280;55182;56.864;60.554;2023-02-12T01:52:56;77961.81;;;-143.60;83.88
68329;BME280;55182;56.864;60.554;2023-02-12T01:55:22;77961.81;;;-143.60;83.82
68329;BME280;55182;56.864;60.554;2023-02-12T01:57:48;77959.81;;;-143.60;83.77
68329;BME280;55182;56.864;60.554;2023-02-12T02:00:16;77955.78;;;-143.60;83.76
68329;BME280;55182;56.864;60.554;2023-02-12T02:02:44;77957.81;;;-143.60;83.66
68329;BME280;55182;56.864;60.554;2023-02-12T02:05:14;77959.81;;;-143.60;83.65
68329;BME280;55182;56.864;60.554;2023-02-12T02:07:42;77959.81;;;-143.60;83.68
68329;BME280;55182;56.864;60.554;2023-02-12T02:10:08;77959.81;;;-143.60;83.77
68329;BME280;55182;56.864;60.554;2023-02-12T02:12:34;77971.88;;;-143.60;83.56
68329;BME280;55182;56.864;60.554;2023-02-12T02:15:00;77973.88;;;-143.60;83.78
68329;BME280;55182;56.864;60.554;2023-02-12T02:20:29;77975.91;;;-143.60;83.69
68329;BME280;55182;56.864;60.554;2023-02-12T02:35:54;78024.16;;;-143.60;84.03
68329;BME280;55182;56.864;60.554;2023-02-12T02:38:27;78040.22;;;-143.60;84.19
68329;BME280;55182;56.864;60.554;2023-02-12T02:41:01;78044.25;;;-143.60;84.28
68329;BME280;55182;56.864;60.554;2023-02-12T02:43:31;78054.31;;;-143.60;84.33
68329;BME280;55182;56.864;60.554;2023-02-12T02:46:05;78064.34;;;-143.60;84.32
68329;BME280;55182;56.864;60.554;2023-02-12T02:48:35;78084.47;;;-143.60;84.73
68329;BME280;55182;56.864;60.554;2023-02-12T02:51:07;78084.47;;;-143.60;84.85
68329;BME280;55182;56.864;60.554;2023-02-12T02:53:36;78088.47;;;-143.60;85.25
68329;BME280;55182;56.864;60.554;2023-02-12T02:56:05;78076.41;;;-143.60;85.71
68329;BME280;55182;56.864;60.554;2023-02-12T02:58:34;78072.41;;;-143.60;86.07
68329;BME280;55182;56.864;60.554;2023-02-12T03:01:05;78060.34;;;-143.60;86.26
68329;BME280;55182;56.864;60.554;2023-02-12T03:03:33;78064.34;;;-143.60;86.24
68329;BME280;55182;56.864;60.554;2023-02-12T03:06:04;78078.44;;;-143.60;86.32
68329;BME280;55182;56.864;60.554;2023-02-12T03:08:33;78088.47;;;-143.60;86.37
68329;BME280;55182;56.864;60.554;2023-02-12T03:11:01;78082.44;;;-143.60;86.25
68329;BME280;55182;56.864;60.554;2023-02-12T03:13:31;78080.44;;;-143.60;86.71
68329;BME280;55182;56.864;60.554;2023-02-12T03:18:45;78052.28;;;-143.60;86.89
68329;BME280;55182;56.864;60.554;2023-02-12T03:21:13;78048.28;;;-143.60;87.15
68329;BME280;55182;56.864;60.554;2023-02-12T03:23:41;78030.19;;;-143.60;87.09
68329;BME280;55182;56.864;60.554;2023-02-12T03:26:12;78024.16;;;-143.60;86.83
68329;BME280;55182;56.864;60.554;2023-02-12T03:28:40;78024.16;;;-143.60;86.94
68329;BME280;55182;56.864;60.554;2023-02-12T03:36:35;78024.16;;;-143.60;86.21
68329;BME280;55182;56.864;60.554;2023-02-12T03:39:06;78026.16;;;-143.60;86.41
68329;BME280;55182;56.864;60.554;2023-02-12T03:41:36;78026.16;;;-143.60;86.16
68329;BME280;55182;56.864;60.554;2023-02-12T03:49:12;78024.16;;;-143.60;86.37
68329;BME280;55182;56.864;60.554;2023-02-12T03:51:41;78016.09;;;-143.60;86.36
68329;BME280;55182;56.864;60.554;2023-02-12T03:54:09;78010.06;;;-143.60;86.41
68329;BME280;55182;56.864;60.554;2023-02-12T03:56:38;78012.09;;;-143.60;85.98
68329;BME280;55182;56.864;60.554;2023-02-12T03:59:05;78006.06;;;-143.60;85.80
68329;BME280;55182;56.864;60.554;2023-02-12T04:01:31;77987.97;;;-143.60;85.97
68329;BME280;55182;56.864;60.554;2023-02-12T04:03:58;77983.94;;;-143.60;85.79
68329;BME280;55182;56.864;60.554;2023-02-12T04:06:25;77971.88;;;-143.60;85.86
68329;BME280;55182;56.864;60.554;2023-02-12T04:08:51;77967.84;;;-143.60;85.67
68329;BME280;55182;56.864;60.554;2023-02-12T04:16:24;77965.84;;;-143.60;85.08
68329;BME280;55182;56.864;60.554;2023-02-12T04:18:53;77957.81;;;-143.60;84.65
68329;BME280;55182;56.864;60.554;2023-02-12T04:24:01;77957.81;;;-143.60;84.10
68329;BME280;55182;56.864;60.554;2023-02-12T04:31:37;77953.78;;;-143.60;83.64
68329;BME280;55182;56.864;60.554;2023-02-12T04:36:55;77959.81;;;-143.60;83.79
68329;BME280;55182;56.864;60.554;2023-02-12T04:39:23;77941.72;;;-143.60;83.66
68329;BME280;55182;56.864;60.554;2023-02-12T04:41:50;77943.72;;;-143.60;83.56
68329;BME280;55182;56.864;60.554;2023-02-12T04:44:23;77943.72;;;-143.60;83.29
68329;BME280;55182;56.864;60.554;2023-02-12T04:46:48;77943.72;;;-143.60;83.09
68329;BME280;55182;56.864;60.554;2023-02-12T04:49:15;77933.69;;;-143.60;83.17
68329;BME280;55182;56.864;60.554;2023-02-12T04:51:41;77935.69;;;-143.60;83.28
68329;BME280;55182;56.864;60.554;2023-02-12T04:54:06;77939.72;;;-143.60;83.27
68329;BME280;55182;56.864;60.554;2023-02-12T04:56:32;77937.69;;;-143.60;83.12
68329;BME280;55182;56.864;60.554;2023-02-12T04:58:57;77931.66;;;-143.60;83.04
68329;BME280;55182;56.864;60.554;2023-02-12T05:01:23;77933.69;;;-143.60;83.04
68329;BME280;55182;56.864;60.554;2023-02-12T05:03:50;77921.63;;;-143.60;82.97
68329;BME280;55182;56.864;60.554;2023-02-12T05:06:15;77919.59;;;-143.60;82.77
68329;BME280;55182;56.864;60.554;2023-02-12T05:08:41;77907.53;;;-143.60;82.82
68329;BME280;55182;56.864;60.554;2023-02-12T05:11:07;77907.53;;;-143.60;82.50
68329;BME280;55182;56.864;60.554;2023-02-12T05:13:33;77903.53;;;-143.60;82.38
68329;BME280;55182;56.864;60.554;2023-02-12T05:15:59;77891.47;;;-143.60;82.14
68329;BME280;55182;56.864;60.554;2023-02-12T05:18:24;77893.47;;;-143.60;81.94
68329;BME280;55182;56.864;60.554;2023-02-12T05:20:57;77887.44;;;-143.60;81.62
68329;BME280;55182;56.864;60.554;2023-02-12T05:23:26;77883.41;;;-143.60;81.28
68329;BME280;55182;56.864;60.554;2023-02-12T05:25:53;77879.41;;;-143.60;80.95
68329;BME280;55182;56.864;60.554;2023-02-12T05:28:19;77879.41;;;-143.60;80.65
68329;BME280;55182;56.864;60.554;2023-02-12T05:30:45;77879.41;;;-143.60;80.70
68329;BME280;55182;56.864;60.554;2023-02-12T05:33:10;77881.41;;;-143.60;80.20
68329;BME280;55182;56.864;60.554;2023-02-12T05:35:36;77877.38;;;-143.60;80.05
68329;BME280;55182;56.864;60.554;2023-02-12T05:38:02;77877.38;;;-143.60;79.89
68329;BME280;55182;56.864;60.554;2023-02-12T05:40:27;77875.38;;;-143.60;79.60
68329;BME280;55182;56.864;60.554;2023-02-12T05:42:53;77879.41;;;-143.60;79.27
68329;BME280;55182;56.864;60.554;2023-02-12T05:45:18;77877.38;;;-143.60;78.92
68329;BME280;55182;56.864;60.554;2023-02-12T05:47:44;77883.41;;;-143.60;78.71
68329;BME280;55182;56.864;60.554;2023-02-12T05:50:09;77891.47;;;-143.60;78.56
68329;BME280;55182;56.864;60.554;2023-02-12T05:52:35;77887.44;;;-143.60;78.72
68329;BME280;55182;56.864;60.554;2023-02-12T05:55:00;77895.47;;;-143.60;78.67
68329;BME280;55182;56.864;60.554;2023-02-12T05:57:26;77897.50;;;-143.60;78.56
68329;BME280;55182;56.864;60.554;2023-02-12T05:59:52;77897.50;;;-143.60;78.82
68329;BME280;55182;56.864;60.554;2023-02-12T06:02:17;77897.50;;;-143.60;78.80
68329;BME280;55182;56.864;60.554;2023-02-12T06:04:43;77895.47;;;-143.60;78.88
68329;BME280;55182;56.864;60.554;2023-02-12T06:07:09;77887.44;;;-143.60;78.80
68329;BME280;55182;56.864;60.554;2023-02-12T06:09:35;77883.41;;;-143.60;79.03
68329;BME280;55182;56.864;60.554;2023-02-12T06:12:01;77887.44;;;-143.60;79.18
68329;BME280;55182;56.864;60.554;2023-02-12T06:14:27;77875.38;;;-143.60;78.85
68329;BME280;55182;56.864;60.554;2023-02-12T06:16:52;77869.34;;;-143.60;78.92
68329;BME280;55182;56.864;60.554;2023-02-12T06:19:18;77855.28;;;-143.60;78.90
68329;BME280;55182;56.864;60.554;2023-02-12T06:21:44;77843.22;;;-143.60;78.79
68329;BME280;55182;56.864;60.554;2023-02-12T06:24:10;77827.13;;;-143.60;78.74
68329;BME280;55182;56.864;60.554;2023-02-12T06:26:36;77813.06;;;-143.60;78.50
68329;BME280;55182;56.864;60.554;2023-02-12T06:29:01;77809.03;;;-143.60;78.13
68329;BME280;55182;56.864;60.554;2023-02-12T06:31:31;77792.94;;;-143.60;77.97
68329;BME280;55182;56.864;60.554;2023-02-12T06:33:58;77786.91;;;-143.60;77.80
68329;BME280;55182;56.864;60.554;2023-02-12T06:36:24;77770.84;;;-143.60;77.63
68329;BME280;55182;56.864;60.554;2023-02-12T06:38:49;77752.75;;;-143.60;77.43
68329;BME280;55182;56.864;60.554;2023-02-12T06:41:15;77746.72;;;-143.60;77.14
68329;BME280;55182;56.864;60.554;2023-02-12T06:43:41;77730.63;;;-143.60;76.94
68329;BME280;55182;56.864;60.554;2023-02-12T06:46:06;77714.56;;;-143.60;76.54
68329;BME280;55182;56.864;60.554;2023-02-12T06:48:32;77706.50;;;-143.60;76.04
68329;BME280;55182;56.864;60.554;2023-02-12T06:51:05;77696.47;;;-143.60;75.73
68329;BME280;55182;56.864;60.554;2023-02-12T06:53:32;77690.44;;;-143.60;75.60
68329;BME280;55182;56.864;60.554;2023-02-12T06:55:58;77680.38;;;-143.60;75.57
68329;BME280;55182;56.864;60.554;2023-02-12T06:58:24;77666.31;;;-143.60;75.16
68329;BME280;55182;56.864;60.554;2023-02-12T07:00:50;77664.28;;;-143.60;74.95
68329;BME280;55182;56.864;60.554;2023-02-12T07:03:15;77662.28;;;-143.60;74.83
68329;BME280;55182;56.864;60.554;2023-02-12T07:05:40;77646.19;;;-143.60;74.97
68329;BME280;55182;56.864;60.554;2023-02-12T07:08:06;77634.13;;;-143.60;74.81
68329;BME280;55182;56.864;60.554;2023-02-12T07:10:31;77614.03;;;-143.60;74.64
68329;BME280;55182;56.864;60.554;2023-02-12T07:12:57;77589.91;;;-143.60;74.47
68329;BME280;55182;56.864;60.554;2023-02-12T07:15:22;77577.84;;;-143.60;73.94
68329;BME280;55182;56.864;60.554;2023-02-12T07:17:47;77565.78;;;-143.60;73.71
68329;BME280;55182;56.864;60.554;2023-02-12T07:20:13;77559.75;;;-143.60;73.54
68329;BME280;55182;56.864;60.554;2023-02-12T07:22:38;77549.72;;;-143.60;73.46
68329;BME280;55182;56.864;60.554;2023-02-12T07:25:04;77537.66;;;-143.60;73.33
68329;BME280;55182;56.864;60.554;2023-02-12T07:27:30;77533.63;;;-143.60;73.13
68329;BME280;55182;56.864;60.554;2023-02-12T07:29:55;77521.56;;;-143.60;72.61
68329;BME280;55182;56.864;60.554;2023-02-12T07:32:21;77513.53;;;-143.60;72.54
68329;BME280;55182;56.864;60.554;2023-02-12T07:34:46;77501.47;;;-143.60;72.13
68329;BME280;55182;56.864;60.554;2023-02-12T07:37:12;77481.38;;;-143.60;72.29
68329;BME280;55182;56.864;60.554;2023-02-12T07:39:37;77465.28;;;-143.60;72.10
68329;BME280;55182;56.864;60.554;2023-02-12T07:42:03;77445.19;;;-143.60;72.16
68329;BME280;55182;56.864;60.554;2023-02-12T07:44:29;77429.09;;;-143.60;71.60
68329;BME280;55182;56.864;60.554;2023-02-12T07:46:54;77409.00;;;-143.60;71.48
68329;BME280;55182;56.864;60.554;2023-02-12T07:49:21;77400.97;;;-143.60;70.98
68329;BME280;55182;56.864;60.554;2023-02-12T07:51:47;77384.88;;;-143.60;70.80
68329;BME280;55182;56.864;60.554;2023-02-12T07:54:12;77364.78;;;-143.60;70.71
68329;BME280;55182;56.864;60.554;2023-02-12T07:56:39;77352.72;;;-143.60;69.83
68329;BME280;55182;56.864;60.554;2023-02-12T07:59:06;77330.59;;;-143.60;69.11
68329;BME280;55182;56.864;60.554;2023-02-12T08:01:35;77324.56;;;-143.60;69.09
68329;BME280;55182;56.864;60.554;2023-02-12T08:04:05;77316.53;;;-143.60;68.62
68329;BME280;55182;56.864;60.554;2023-02-12T08:06:32;77308.50;;;-143.60;68.12
68329;BME280;55182;56.864;60.554;2023-02-12T08:08:59;77302.47;;;-143.60;68.54
68329;BME280;55182;56.864;60.554;2023-02-12T08:11:26;77280.34;;;-143.60;67.62
68329;BME280;55182;56.864;60.554;2023-02-12T08:13:52;77280.34;;;-143.60;67.29
68329;BME280;55182;56.864;60.554;2023-02-12T08:16:18;77280.34;;;-143.60;67.28
68329;BME280;55182;56.864;60.554;2023-02-12T08:18:44;77282.38;;;-143.60;66.57
68329;BME280;55182;56.864;60.554;2023-02-12T08:21:11;77282.38;;;-143.60;67.17
68329;BME280;55182;56.864;60.554;2023-02-12T08:23:37;77270.31;;;-143.60;67.39
68329;BME280;55182;56.864;60.554;2023-02-12T08:26:06;77280.34;;;-143.60;67.18
68329;BME280;55182;56.864;60.554;2023-02-12T08:28:32;77274.31;;;-143.60;66.83
68329;BME280;55182;56.864;60.554;2023-02-12T08:30:59;77284.38;;;-143.60;66.42
68329;BME280;55182;56.864;60.554;2023-02-12T08:33:24;77282.38;;;-143.60;67.07
68329;BME280;55182;56.864;60.554;2023-02-12T08:35:49;77292.41;;;-143.60;66.86
68329;BME280;55182;56.864;60.554;2023-02-12T08:38:15;77292.41;;;-143.60;66.70
68329;BME280;55182;56.864;60.554;2023-02-12T08:40:40;77304.47;;;-143.60;66.42
68329;BME280;55182;56.864;60.554;2023-02-12T08:43:06;77308.50;;;-143.60;66.82
68329;BME280;55182;56.864;60.554;2023-02-12T08:45:31;77314.53;;;-143.60;66.28
68329;BME280;55182;56.864;60.554;2023-02-12T08:47:57;77316.53;;;-143.60;66.31
68329;BME280;55182;56.864;60.554;2023-02-12T08:50:22;77310.50;;;-143.60;66.52
68329;BME280;55182;56.864;60.554;2023-02-12T08:52:48;77312.50;;;-143.60;66.45
68329;BME280;55182;56.864;60.554;2023-02-12T08:55:13;77304.47;;;-143.60;65.83
68329;BME280;55182;56.864;60.554;2023-02-12T08:57:39;77300.44;;;-143.60;65.74
68329;BME280;55182;56.864;60.554;2023-02-12T09:00:06;77294.44;;;-143.60;66.58
68329;BME280;55182;56.864;60.554;2023-02-12T09:02:32;77302.47;;;-143.60;66.42
68329;BME280;55182;56.864;60.554;2023-02-12T09:04:57;77296.44;;;-143.60;65.54
68329;BME280;55182;56.864;60.554;2023-02-12T09:07:22;77292.41;;;-143.60;65.44
68329;BME280;55182;56.864;60.554;2023-02-12T09:09:48;77282.38;;;-143.60;64.75
68329;BME280;55182;56.864;60.554;2023-02-12T09:12:13;77264.28;;;-143.60;64.13
68329;BME280;55182;56.864;60.554;2023-02-12T09:14:39;77236.13;;;-143.60;63.27
68329;BME280;55182;56.864;60.554;2023-02-12T09:17:04;77210.00;;;-143.60;62.58
68329;BME280;55182;56.864;60.554;2023-02-12T09:19:30;77183.88;;;-143.60;62.82
68329;BME280;55182;56.864;60.554;2023-02-12T09:21:55;77141.66;;;-143.60;62.93
68329;BME280;55182;56.864;60.554;2023-02-12T09:24:21;77091.41;;;-143.60;61.75
68329;BME280;55182;56.864;60.554;2023-02-12T09:26:46;77051.22;;;-143.60;60.27
68329;BME280;55182;56.864;60.554;2023-02-12T09:29:12;77023.06;;;-143.60;58.30
68329;BME280;55182;56.864;60.554;2023-02-12T09:31:37;77000.97;;;-143.60;59.05
68329;BME280;55182;56.864;60.554;2023-02-12T09:34:03;76992.94;;;-143.60;58.44
68329;BME280;55182;56.864;60.554;2023-02-12T09:36:30;77007.00;;;-143.60;56.53
68329;BME280;55182;56.864;60.554;2023-02-12T09:38:56;77019.06;;;-143.60;56.37
68329;BME280;55182;56.864;60.554;2023-02-12T09:44:30;77047.19;;;-143.60;56.31
68329;BME280;55182;56.864;60.554;2023-02-12T09:52:01;77041.16;;;-143.60;57.10
68329;BME280;55182;56.864;60.554;2023-02-12T09:54:30;77035.13;;;-143.60;57.02
68329;BME280;55182;56.864;60.554;2023-02-12T09:56:58;77021.06;;;-143.60;57.54
68329;BME280;55182;56.864;60.554;2023-02-12T09:59:37;77027.09;;;-143.60;57.56
68329;BME280;55182;56.864;60.554;2023-02-12T10:02:14;77037.16;;;-143.60;58.22
68329;BME280;55182;56.864;60.554;2023-02-12T10:04:41;77045.19;;;-143.60;58.21
68329;BME280;55182;56.864;60.554;2023-02-12T10:07:10;77055.22;;;-143.60;58.73
68329;BME280;55182;56.864;60.554;2023-02-12T10:10:00;77057.25;;;-143.60;58.62
68329;BME280;55182;56.864;60.554;2023-02-12T10:17:24;77075.34;;;-143.60;58.79
68329;BME280;55182;56.864;60.554;2023-02-12T10:22:30;77075.34;;;-143.60;59.31
68329;BME280;55182;56.864;60.554;2023-02-12T10:27:39;77067.28;;;-143.60;57.33
68329;BME280;55182;56.864;60.554;2023-02-12T10:32:45;77071.31;;;-143.60;56.66
68329;BME280;55182;56.864;60.554;2023-02-12T10:35:13;77075.34;;;-143.60;56.15
68329;BME280;55182;56.864;60.554;2023-02-12T10:37:40;77071.31;;;-143.60;56.68
68329;BME280;55182;56.864;60.554;2023-02-12T10:40:18;77071.31;;;-143.60;56.21
68329;BME280;55182;56.864;60.554;2023-02-12T10:42:46;77071.31;;;-143.60;56.43
68329;BME280;55182;56.864;60.554;2023-02-12T10:45:14;77079.34;;;-143.60;57.38
68329;BME280;55182;56.864;60.554;2023-02-12T10:47:40;77079.34;;;-143.60;56.69
68329;BME280;55182;56.864;60.554;2023-02-12T10:52:58;77091.41;;;-143.60;56.65
68329;BME280;55182;56.864;60.554;2023-02-12T10:55:29;77099.44;;;-143.60;56.50
68329;BME280;55182;56.864;60.554;2023-02-12T10:57:56;77103.47;;;-143.60;56.14
68329;BME280;55182;56.864;60.554;2023-02-12T11:00:23;77099.44;;;-143.60;55.87
68329;BME280;55182;56.864;60.554;2023-02-12T11:03:17;77103.47;;;-143.60;55.28
68329;BME280;55182;56.864;60.554;2023-02-12T11:05:44;77101.47;;;-143.60;55.13
68329;BME280;55182;56.864;60.554;2023-02-12T11:08:29;77099.44;;;-143.60;55.38
68329;BME280;55182;56.864;60.554;2023-02-12T11:11:01;77099.44;;;-143.60;55.65
68329;BME280;55182;56.864;60.554;2023-02-12T11:13:27;77103.47;;;-143.60;55.51
68329;BME280;55182;56.864;60.554;2023-02-12T11:15:52;77103.47;;;-143.60;56.00
68329;BME280;55182;56.864;60.554;2023-02-12T11:18:25;77115.53;;;-143.60;55.70
68329;BME280;55182;56.864;60.554;2023-02-12T11:21:10;77119.56;;;-143.60;55.57
68329;BME280;55182;56.864;60.554;2023-02-12T11:28:30;77135.63;;;-143.60;56.26
68329;BME280;55182;56.864;60.554;2023-02-12T11:31:03;77145.69;;;-143.60;56.22
68329;BME280;55182;56.864;60.554;2023-02-12T11:33:41;77161.75;;;-143.60;56.47
68329;BME280;55182;56.864;60.554;2023-02-12T11:36:22;77167.78;;;-143.60;56.44
68329;BME280;55182;56.864;60.554;2023-02-12T11:38:51;77175.84;;;-143.60;57.00
68329;BME280;55182;56.864;60.554;2023-02-12T11:41:22;77185.88;;;-143.60;56.96
68329;BME280;55182;56.864;60.554;2023-02-12T11:43:49;77195.94;;;-143.60;56.87
68329;BME280;55182;56.864;60.554;2023-02-12T11:46:18;77203.97;;;-143.60;56.75
68329;BME280;55182;56.864;60.554;2023-02-12T11:48:44;77216.03;;;-143.60;56.77
68329;BME280;55182;56.864;60.554;2023-02-12T11:51:16;77226.09;;;-143.60;56.64
68329;BME280;55182;56.864;60.554;2023-02-12T11:53:42;77230.09;;;-143.60;56.76
68329;BME280;55182;56.864;60.554;2023-02-12T11:56:12;77240.16;;;-143.60;56.18
68329;BME280;55182;56.864;60.554;2023-02-12T11:58:38;77232.13;;;-143.60;56.19
68329;BME280;55182;56.864;60.554;2023-02-12T12:01:07;77244.19;;;-143.60;56.01
68329;BME280;55182;56.864;60.554;2023-02-12T12:06:23;77256.22;;;-143.60;56.73
68329;BME280;55182;56.864;60.554;2023-02-12T12:09:06;77260.25;;;-143.60;56.88
68329;BME280;55182;56.864;60.554;2023-02-12T12:17:03;77288.41;;;-143.60;57.62
68329;BME280;55182;56.864;60.554;2023-02-12T12:22:39;77302.47;;;-143.60;58.87
68329;BME280;55182;56.864;60.554;2023-02-12T12:29:58;77312.50;;;-143.60;59.48
68329;BME280;55182;56.864;60.554;2023-02-12T12:32:26;77316.53;;;-143.60;59.43
68329;BME280;55182;56.864;60.554;2023-02-12T12:34:53;77322.56;;;-143.60;59.90
68329;BME280;55182;56.864;60.554;2023-02-12T12:43:01;77352.72;;;-143.60;61.10
68329;BME280;55182;56.864;60.554;2023-02-12T12:48:16;77368.78;;;-143.60;62.07
68329;BME280;55182;56.864;60.554;2023-02-12T13:00:44;77376.84;;;-143.60;64.02
68329;BME280;55182;56.864;60.554;2023-02-12T13:05:57;77368.78;;;-143.60;64.46
68329;BME280;55182;56.864;60.554;2023-02-12T13:13:46;77388.91;;;-143.60;66.18
68329;BME280;55182;56.864;60.554;2023-02-12T13:16:18;77392.91;;;-143.60;67.34
68329;BME280;55182;56.864;60.554;2023-02-12T13:21:13;77417.03;;;-143.60;68.90
68329;BME280;55182;56.864;60.554;2023-02-12T13:28:47;77437.13;;;-143.60;69.72
68329;BME280;55182;56.864;60.554;2023-02-12T13:31:16;77449.19;;;-143.60;69.93
68329;BME280;55182;56.864;60.554;2023-02-12T13:33:57;77449.19;;;-143.60;69.51
68329;BME280;55182;56.864;60.554;2023-02-12T13:36:24;77457.25;;;-143.60;69.48
68329;BME280;55182;56.864;60.554;2023-02-12T13:39:00;77449.19;;;-143.60;69.49
68329;BME280;55182;56.864;60.554;2023-02-12T13:41:28;77455.22;;;-143.60;69.10
68329;BME280;55182;56.864;60.554;2023-02-12T13:46:43;77461.25;;;-143.60;69.59
68329;BME280;55182;56.864;60.554;2023-02-12T13:56:42;77465.28;;;-143.60;69.76
68329;BME280;55182;56.864;60.554;2023-02-12T14:01:53;77469.31;;;-143.60;69.41
68329;BME280;55182;56.864;60.554;2023-02-12T14:07:18;77487.41;;;-143.60;69.46
68329;BME280;55182;56.864;60.554;2023-02-12T14:09:37;77493.44;;;-143.60;69.70
68329;BME280;55182;56.864;60.554;2023-02-12T14:12:04;77515.53;;;-143.60;69.96
68329;BME280;55182;56.864;60.554;2023-02-12T14:14:31;77521.56;;;-143.60;70.14
68329;BME280;55182;56.864;60.554;2023-02-12T14:17:25;77535.63;;;-143.60;70.09
68329;BME280;55182;56.864;60.554;2023-02-12T14:24:56;77555.75;;;-143.60;69.64
68329;BME280;55182;56.864;60.554;2023-02-12T14:27:26;77551.72;;;-143.60;69.55
68329;BME280;55182;56.864;60.554;2023-02-12T14:35:38;77569.81;;;-143.60;68.41
68329;BME280;55182;56.864;60.554;2023-02-12T14:43:02;77593.94;;;-143.60;69.04
68329;BME280;55182;56.864;60.554;2023-02-12T14:45:33;77608.00;;;-143.60;69.37
68329;BME280;55182;56.864;60.554;2023-02-12T14:48:01;77614.03;;;-143.60;69.78
68329;BME280;55182;56.864;60.554;2023-02-12T14:50:34;77618.06;;;-143.60;69.55
68329;BME280;55182;56.864;60.554;2023-02-12T14:53:07;77614.03;;;-143.60;69.09
68329;BME280;55182;56.864;60.554;2023-02-12T14:55:38;77614.03;;;-143.60;68.52
68329;BME280;55182;56.864;60.554;2023-02-12T14:58:05;77622.06;;;-143.60;67.49
68329;BME280;55182;56.864;60.554;2023-02-12T15:00:39;77614.03;;;-143.60;67.08
68329;BME280;55182;56.864;60.554;2023-02-12T15:05:49;77595.94;;;-143.60;66.58
68329;BME280;55182;56.864;60.554;2023-02-12T15:08:35;77589.91;;;-143.60;66.39
68329;BME280;55182;56.864;60.554;2023-02-12T15:13:42;77608.00;;;-143.60;66.23
68329;BME280;55182;56.864;60.554;2023-02-12T15:18:58;77630.13;;;-143.60;66.39